Latest Weather Observations for Narrabri

IDN60801

Issued at 1:23 pm EDT Thursday 20 January 2022 (issued every 10 minutes, with the page automatically refreshed every 10 minutes)

About weather observations | Map of weather stations | Latest weather observations for NSW | Other Formats
Station Details ID: 054038 Name: NARRABRI AIRPORT AWS Lat: -30.32 Lon: 149.83 Height: 229.02 m
Data from the previous 72 hours. | See also: Recent months at Narrabri
Date/Time
EDT
Temp
°C
App
Temp
°C
Dew
Point
°C
Rel
Hum
%
Delta-T
°C
Wind Press
QNH
hPa
Press
MSL
hPa
Rain since
9am
mm
Dir  Spd
km/h
Gust
km/h
Spd
kts
Gust
kts
20/01:00pm 28.1 23.4 13.2 39 8.9 SE 30 44 16 24 1019.5 1018.1 0.0
20/12:30pm 28.1 23.3 14.0 42 8.5 SE 32 50 17 27 1019.9 1018.5 0.0
20/12:09pm 27.8 23.7 13.7 42 8.5 SE 28 46 15 25 1019.9 1018.5 0.0
20/12:00pm 27.3 24.5 16.3 51 6.8 SE 26 44 14 24 1019.9 1018.5 0.0
20/11:48am 26.3 22.0 15.4 51 6.7 SSE 32 50 17 27 1020.1 1018.7 0.0
20/11:30am 26.3 22.5 14.7 48 7.0 SSE 28 39 15 21 1020.2 1018.8 0.0
20/11:00am 25.1 20.5 14.6 52 6.3 SSE 32 48 17 26 1020.3 1018.9 0.0
20/10:54am 25.7 22.2 15.4 53 6.3 SE 28 46 15 25 1020.3 1018.9 0.0
20/10:30am 24.8 22.2 14.9 54 6.0 SSE 22 35 12 19 1020.5 1019.1 0.0
20/10:08am 23.5 19.4 13.9 55 5.7 SSE 28 56 15 30 1020.4 1019.0 0.0
20/10:00am 22.5 19.2 14.1 59 4.9 SSE 24 41 13 22 1020.2 1018.8 0.0
20/09:42am 22.6 17.7 13.7 57 5.2 SSE 32 52 17 28 1020.2 1018.8 0.0
20/09:30am 22.5 17.8 14.4 60 4.8 SSE 32 46 17 25 1019.9 1018.5 0.0
20/09:17am 21.9 17.4 13.8 60 4.7 SSE 30 48 16 26 1019.7 1018.3 0.0
20/09:00am 21.2 16.4 14.1 64 4.2 SSE 32 43 17 23 1019.7 1018.3 0.0
20/08:30am 20.3 16.2 13.7 66 3.8 SSE 28 43 15 23 1019.5 1018.1 0.0
20/08:19am 20.2 16.1 13.9 67 3.7 SSE 28 46 15 25 1019.4 1018.0 0.0
20/08:00am 19.6 15.2 14.0 70 3.3 SE 30 41 16 22 1019.0 1017.6 0.0
20/07:30am 19.1 14.5 13.5 70 3.2 SSE 30 44 16 24 1018.4 1016.9 0.0
20/07:00am 19.0 14.8 13.4 70 3.2 SE 28 43 15 23 1018.2 1016.7 0.0
20/06:30am 18.8 14.0 13.0 69 3.3 SE 30 44 16 24 1018.2 1016.7 0.0
20/06:03am 18.5 14.2 13.1 71 3.1 SE 28 48 15 26 1017.8 1016.3 0.0
20/06:00am 18.4 14.1 13.3 72 2.9 SE 28 43 15 23 1017.8 1016.3 0.0
20/05:32am 18.0 12.9 13.1 73 2.8 SSE 32 50 17 27 1017.7 1016.2 0.0
20/05:30am 17.9 12.6 13.2 74 2.7 SSE 33 50 18 27 1017.7 1016.2 0.0
20/05:00am 18.4 13.2 12.8 70 3.2 SSE 32 50 17 27 1017.0 1015.5 0.0
20/04:30am 19.5 14.6 12.5 64 4.0 SSE 30 52 16 28 1016.7 1015.2 0.0
20/04:06am 19.5 14.3 12.8 65 3.8 SSE 32 50 17 27 1016.8 1015.3 0.0
20/04:00am 19.5 15.1 13.0 66 3.7 SSE 28 43 15 23 1016.9 1015.4 0.0
20/03:46am 19.5 15.2 13.2 67 3.6 SSE 28 50 15 27 1016.5 1015.0 0.0
20/03:30am 19.4 15.8 13.1 67 3.6 SSE 24 46 13 25 1016.4 1014.9 0.0
20/03:00am 19.3 15.5 13.5 69 3.3 SE 26 41 14 22 1016.7 1015.2 0.0
20/02:32am 19.5 15.3 13.4 68 3.5 SE 28 48 15 26 1016.8 1015.3 0.0
20/02:30am 19.5 15.6 13.4 68 3.5 SE 26 48 14 26 1016.7 1015.2 0.0
20/02:12am 19.7 15.4 13.2 66 3.7 SSE 28 48 15 26 1017.0 1015.5 0.0
20/02:00am 19.8 16.3 13.3 66 3.7 SE 24 50 13 27 1017.1 1015.6 0.0
20/01:30am 19.8 15.6 13.5 67 3.6 SSE 28 48 15 26 1017.1 1015.6 0.0
20/01:26am 19.8 15.5 13.3 66 3.7 SSE 28 48 15 26 1017.2 1015.7 0.0
20/01:00am 20.1 16.3 13.6 66 3.8 SE 26 37 14 20 1017.4 1015.9 0.0
20/12:30am 20.3 17.0 14.0 67 3.7 SSE 24 37 13 20 1017.6 1016.1 0.0
20/12:00am 20.3 17.3 14.7 70 3.3 SSE 24 37 13 20 1017.6 1016.1 0.0
 
Date/Time
EDT
Temp
°C
App
Temp
°C
Dew
Point
°C
Rel
Hum
%
Delta-T
°C
Wind Press
QNH
hPa
Press
MSL
hPa
Rain since
9am
mm
Dir  Spd
km/h
Gust
km/h
Spd
kts
Gust
kts
19/11:30pm 20.5 18.6 15.1 71 3.2 SSE 19 28 10 15 1017.5 1016.0 0.0
19/11:00pm 20.7 19.1 15.0 70 3.4 SSE 17 30 9 16 1017.2 1015.7 0.0
19/10:30pm 20.7 19.2 15.3 71 3.2 SSE 17 28 9 15 1017.1 1015.6 0.0
19/10:00pm 20.7 18.6 15.3 71 3.2 SSE 20 37 11 20 1016.6 1015.1 0.0
19/09:30pm 20.3 16.8 15.5 74 2.9 SSE 28 43 15 23 1016.4 1014.9 0.0
19/09:00pm 20.3 16.0 15.3 73 3.0 SSE 32 48 17 26 1015.4 1014.0 0.0
19/08:32pm 20.4 16.1 15.4 73 3.0 SSE 32 52 17 28 1015.5 1014.1 0.0
19/08:30pm 20.3 16.0 15.3 73 3.0 SSE 32 43 17 23 1015.5 1014.1 0.0
19/08:00pm 20.8 17.6 15.4 71 3.2 SSE 26 39 14 21 1015.2 1013.8 0.0
19/07:30pm 21.2 17.8 15.7 71 3.3 SSE 28 43 15 23 1014.7 1013.2 0.0
19/07:00pm 21.5 18.8 16.5 73 3.1 SSE 26 41 14 22 1014.3 1012.8 0.0
19/06:30pm 22.1 18.7 16.8 72 3.3 SSE 30 43 16 23 1014.1 1012.6 0.0
19/06:00pm 23.0 20.8 17.0 69 3.7 SSE 24 39 13 21 1014.0 1012.5 0.0
19/05:30pm 22.9 20.5 17.4 71 3.4 SSE 26 41 14 22 1013.7 1012.2 0.0
19/05:00pm 23.7 20.1 17.2 67 4.1 SSE 32 54 17 29 1013.8 1012.3 0.0
19/04:55pm 23.8 20.3 17.5 68 4.0 SSE 32 54 17 29 1013.7 1012.2 0.0
19/04:30pm 24.1 22.2 18.5 71 3.6 SSE 26 41 14 22 1013.8 1012.3 0.0
19/04:00pm 23.5 22.7 19.2 77 2.8 SSE 22 35 12 19 1013.9 1012.4 0.0
19/03:30pm 22.7 21.0 18.9 79 2.4 SE 26 37 14 20 1014.1 1012.6 0.0
19/03:00pm 22.8 21.3 18.6 77 2.7 SSE 24 37 13 20 1014.4 1012.9 0.0
19/02:30pm 22.6 20.4 18.6 78 2.5 SSE 28 41 15 22 1014.3 1012.8 0.0
19/02:00pm 22.3 20.6 18.9 81 2.2 SSE 26 43 14 23 1014.4 1012.9 0.0
19/01:30pm 23.4 21.0 18.3 73 3.2 SSE 28 37 15 20 1014.6 1013.1 0.0
19/01:00pm 24.5 22.7 18.7 70 3.7 SSE 26 37 14 20 1014.6 1013.1 0.0
19/12:30pm 25.9 25.1 20.0 70 3.9 SSE 24 35 13 19 1014.5 1013.0 0.0
19/12:00pm 24.7 23.3 18.9 70 3.7 SSE 24 35 13 19 1014.7 1013.2 0.0
19/11:30am 24.5 23.3 19.3 73 3.4 SSE 24 35 13 19 1014.7 1013.2 0.0
19/11:00am 23.6 22.8 19.3 77 2.8 SSE 22 32 12 17 1014.6 1013.1 0.0
19/10:30am 23.0 22.7 19.6 81 2.2 SSE 20 30 11 16 1014.2 1012.7 0.0
19/10:00am 22.8 22.6 19.4 81 2.2 SSE 19 26 10 14 1014.2 1012.7 0.0
19/09:30am 23.5 25.1 20.0 81 2.3 SSE 11 19 6 10 1013.9 1012.4 0.0
19/09:00am 22.7 24.4 19.3 81 2.2 SSE 9 15 5 8 1013.9 1012.4 36.4
19/08:30am 22.7 24.7 19.9 84 1.8 SE 9 13 5 7 1013.6 1012.1 36.4
19/08:00am 22.4 23.9 19.8 85 1.7 SSE 11 15 6 8 1013.4 1011.9 36.4
19/07:30am 22.9 25.0 20.1 84 1.8 SSE 9 19 5 10 1013.0 1011.5 36.4
19/07:00am 21.8 23.3 19.7 88 1.4 SE 11 15 6 8 1012.4 1010.9 36.4
19/06:30am 21.3 22.6 19.4 89 1.2 SSE 11 15 6 8 1012.2 1010.7 36.4
19/06:21am 21.3 23.4 19.4 89 1.2 SE 7 13 4 7 1012.1 1010.6 36.4
19/06:00am 21.3 23.4 19.4 89 1.2 SE 7 13 4 7 1011.7 1010.2 36.4
19/05:30am 21.2 23.5 19.5 90 1.1 SSE 6 9 3 5 1011.5 1010.1 36.4
19/05:00am 21.1 23.4 19.4 90 1.1 SE 6 7 3 4 1011.2 1009.8 36.4
19/04:30am 20.8 22.8 19.1 90 1.1 SE 7 11 4 6 1011.0 1009.6 36.4
19/04:00am 20.9 22.5 19.2 90 1.1 SSE 9 11 5 6 1011.1 1009.7 36.4
19/03:55am 20.8 22.5 19.3 91 1.0 SSE 9 13 5 7 1011.0 1009.6 36.4
19/03:30am 20.9 24.0 19.4 91 1.0 ESE 2 6 1 3 1010.7 1009.2 36.4
19/03:00am 20.9 24.2 19.2 90 1.1 CALM 0 0 0 0 1010.7 1009.2 36.4
19/02:30am 20.9 24.2 19.2 90 1.1 CALM 0 0 0 0 1011.1 1009.7 36.4
19/02:00am 21.3 24.7 19.4 89 1.2 CALM 0 0 0 0 1011.1 1009.7 36.4
19/01:30am 21.4 24.9 19.5 89 1.2 CALM 0 0 0 0 1011.4 1010.0 36.4
19/01:00am 21.4 24.1 19.5 89 1.2 N 4 7 2 4 1011.5 1010.1 36.4
19/12:30am 21.3 24.3 19.2 88 1.3 WNW 2 7 1 4 1011.4 1010.0 36.4
19/12:00am 21.1 23.3 19.2 89 1.2 N 6 7 3 4 1011.3 1009.9 36.4
 
Date/Time
EDT
Temp
°C
App
Temp
°C
Dew
Point
°C
Rel
Hum
%
Delta-T
°C
Wind Press
QNH
hPa
Press
MSL
hPa
Rain since
9am
mm
Dir  Spd
km/h
Gust
km/h
Spd
kts
Gust
kts
18/11:30pm 21.0 23.8 18.9 88 1.3 N 2 6 1 3 1010.8 1009.3 36.4
18/11:00pm 21.2 24.0 18.9 87 1.5 N 2 7 1 4 1010.9 1009.5 36.4
18/10:30pm 21.7 24.5 18.9 84 1.8 NE 2 6 1 3 1010.7 1009.2 36.4
18/10:00pm 21.7 22.8 18.9 84 1.8 SSE 11 15 6 8 1010.7 1009.2 36.4
18/09:30pm 21.7 23.7 19.1 85 1.7 SSE 7 9 4 5 1010.3 1008.8 36.4
18/09:00pm 21.9 24.0 19.3 85 1.7 SSE 7 11 4 6 1010.2 1008.7 36.4
18/08:30pm 22.0 25.2 19.7 87 1.5 S 2 7 1 4 1010.2 1008.7 36.4
18/08:00pm 22.6 24.9 19.9 85 1.8 NNE 7 11 4 6 1010.1 1008.6 36.4
18/07:30pm 23.5 27.0 19.6 79 2.5 CALM 0 6 0 3 1009.4 1007.9 36.4
18/07:00pm 22.9 25.3 20.1 84 1.8 SSE 7 11 4 6 1009.3 1007.8 36.4
18/06:30pm 22.7 24.9 19.7 83 1.9 SSE 7 11 4 6 1009.2 1007.7 36.4
18/06:00pm 22.0 23.0 19.4 85 1.7 ESE 13 24 7 13 1008.8 1007.3 36.4
18/05:30pm 21.6 21.5 19.5 88 1.3 ESE 19 28 10 15 1008.9 1007.4 36.4
18/05:00pm 20.7 22.0 19.2 91 1.0 ESE 11 19 6 10 1010.0 1008.5 36.4
18/04:30pm 20.0 20.2 18.5 91 0.9 E 15 19 8 10 1010.4 1008.9 35.8
18/04:00pm 19.9 21.2 18.4 91 0.9 SE 9 13 5 7 1011.7 1010.2 33.0
18/03:30pm 19.9 21.7 18.4 91 0.9 W 6 9 3 5 1011.9 1010.4 31.2
18/03:26pm 19.9 21.6 18.4 91 0.9 WNW 7 9 4 5 1011.8 1010.3 31.0
18/03:00pm 20.0 19.7 18.3 90 1.1 WNW 17 24 9 13 1012.0 1010.5 28.0
18/02:55pm 19.9 19.6 18.2 90 1.1 W 17 28 9 15 1011.7 1010.2 27.4
18/02:45pm 20.0 15.1 18.1 89 1.2 WSW 41 59 22 32 1012.7 1011.2 23.0
18/02:39pm 20.6 16.2 18.4 87 1.4 WSW 39 59 21 32 1012.9 1011.4 18.0
18/02:33pm 22.3 22.4 20.0 87 1.5 SSW 19 52 10 28 1012.4 1010.9 16.6
18/02:30pm 22.3 23.5 19.8 86 1.6 S 13 17 7 9 1011.1 1009.7 16.6
18/02:00pm 22.4 23.6 19.9 86 1.6 SSE 13 20 7 11 1010.6 1009.1 16.4
18/01:30pm 22.1 22.7 19.5 85 1.7 SE 15 22 8 12 1011.1 1009.7 15.8
18/01:00pm 21.6 21.9 19.7 89 1.2 ESE 17 26 9 14 1012.2 1010.7 15.8
18/12:30pm 20.8 20.5 19.1 90 1.1 ESE 19 28 10 15 1012.5 1011.0 15.0
18/12:23pm 20.8 20.9 19.1 90 1.1 ESE 17 24 9 13 1012.8 1011.3 14.6
18/12:00pm 20.8 22.0 19.1 90 1.1 S 11 15 6 8 1013.3 1011.8 12.0
18/11:56am 21.0 22.0 19.5 91 1.0 S 13 15 7 8 1013.4 1011.9 11.8
18/11:43am 21.1 22.1 19.4 90 1.1 SSW 13 19 7 10 1013.7 1012.2 9.2
18/11:30am 21.0 20.6 19.3 90 1.1 SSW 20 30 11 16 1013.6 1012.1 8.2
18/11:25am 20.9 20.0 19.0 89 1.2 SSW 22 32 12 17 1013.5 1012.0 7.2
18/11:07am 21.2 16.6 18.9 87 1.5 WSW 41 52 22 28 1014.3 1012.8 1.8
18/11:00am 22.5 19.4 18.3 77 2.7 W 32 52 17 28 1013.6 1012.1 0.0
18/10:57am 24.0 22.3 18.2 70 3.7 WNW 24 50 13 27 1013.6 1012.1 0.0
18/10:30am 26.3 25.9 19.4 66 4.5 N 20 30 11 16 1011.8 1010.3 0.0
18/10:00am 27.7 25.7 18.4 57 6.0 NNE 26 39 14 21 1011.3 1009.9 0.0
18/09:30am 28.1 25.4 18.5 56 6.2 NNE 30 39 16 21 1011.4 1010.0 0.0
18/09:00am 28.2 25.7 18.9 57 6.0 NNE 30 41 16 22 1011.3 1009.9 0.0
18/08:30am 29.1 26.4 18.5 52 6.9 NNE 30 41 16 22 1011.5 1010.1 0.0
18/08:08am 29.5 27.1 18.3 51 7.2 NNE 28 46 15 25 1011.0 1009.6 0.0
18/08:00am 29.4 28.8 18.8 53 6.9 NNE 20 30 11 16 1011.1 1009.7 0.0
18/07:30am 28.0 27.6 19.0 58 5.9 NNE 19 26 10 14 1010.6 1009.1 0.0
18/07:00am 27.6 27.4 18.6 58 5.8 NE 17 22 9 12 1010.3 1008.8 0.0
18/06:30am 27.4 26.9 18.7 59 5.6 NE 19 22 10 12 1009.9 1008.4 0.0
18/06:00am 27.6 27.8 18.6 58 5.8 NE 15 20 8 11 1009.6 1008.1 0.0
18/05:30am 28.0 27.4 18.4 56 6.2 NNE 19 24 10 13 1009.1 1007.6 0.0
18/05:00am 28.2 27.0 18.3 55 6.4 NNE 22 30 12 16 1008.5 1007.0 0.0
18/04:30am 28.5 27.6 18.3 54 6.6 NNE 20 28 11 15 1008.4 1006.9 0.0
18/04:00am 28.7 27.8 18.2 53 6.8 NNE 20 28 11 15 1008.2 1006.7 0.0
18/03:30am 28.8 28.1 18.3 53 6.8 NNE 19 26 10 14 1008.5 1007.0 0.0
18/03:00am 28.7 28.7 18.2 53 6.8 NNE 15 20 8 11 1008.6 1007.1 0.0
18/02:30am 27.3 29.0 16.3 51 6.9 WNW 2 9 1 5 1009.0 1007.5 0.0
18/02:00am 27.6 28.8 14.9 45 7.8 N 2 9 1 5 1009.4 1007.9 0.0
18/01:30am 28.7 27.4 15.9 45 8.0 SE 17 22 9 12 1008.8 1007.3 0.0
18/01:00am 28.9 27.6 15.8 45 8.2 SSE 17 22 9 12 1009.1 1007.6 0.0
18/12:30am 29.3 27.8 15.4 42 8.6 SE 17 24 9 13 1009.0 1007.5 0.0
18/12:00am 29.4 29.4 15.1 41 8.8 ESE 9 17 5 9 1009.4 1007.9 0.0
 
Date/Time
EDT
Temp
°C
App
Temp
°C
Dew
Point
°C
Rel
Hum
%
Delta-T
°C
Wind Press
QNH
hPa
Press
MSL
hPa
Rain since
9am
mm
Dir  Spd
km/h
Gust
km/h
Spd
kts
Gust
kts
17/11:30pm 30.2 28.9 14.7 39 9.5 SSE 15 22 8 12 1009.3 1007.8 0.0
17/11:00pm 30.7 28.1 13.9 36 10.2 SSE 20 32 11 17 1009.3 1007.8 0.0
17/10:30pm 30.9 28.8 13.7 35 10.4 SSE 17 26 9 14 1009.3 1007.8 0.0
17/10:00pm 31.6 30.6 13.4 33 11.0 SE 11 17 6 9 1008.9 1007.4 0.0
17/09:30pm 31.5 30.8 13.3 33 11.0 ESE 9 11 5 6 1008.3 1006.8 0.0
17/09:00pm 32.9 32.3 13.5 30 11.9 SE 9 13 5 7 1007.9 1006.4 0.0
17/08:30pm 33.1 32.2 13.7 31 11.9 SE 11 15 6 8 1007.7 1006.2 0.0
17/08:00pm 33.5 32.7 13.0 29 12.5 SE 9 11 5 6 1007.4 1005.9 0.0
17/07:30pm 34.5 34.2 13.3 27 13.0 S 7 9 4 5 1006.9 1005.4 0.0
17/07:00pm 36.2 35.4 13.0 24 14.3 S 9 13 5 7 1006.5 1005.0 0.0
17/06:30pm 36.7 35.7 13.5 25 14.3 SSE 11 13 6 7 1006.3 1004.8 0.0
17/06:00pm 36.8 36.6 13.5 24 14.4 SSE 7 15 4 8 1006.0 1004.5 0.0
17/05:30pm 37.2 36.9 12.6 23 15.0 S 6 15 3 8 1006.0 1004.5 0.0
17/05:00pm 37.4 37.2 14.7 26 14.3 NE 9 11 5 6 1006.1 1004.6 0.0
17/04:30pm 36.6 36.0 14.6 27 13.8 ENE 11 20 6 11 1006.3 1004.8 0.0
17/04:00pm 38.0 37.7 13.3 23 15.3 WNW 7 13 4 7 1006.4 1004.9 0.0
17/03:30pm 37.3 37.2 14.0 25 14.5 WNW 7 17 4 9 1006.8 1005.3 0.0
17/03:00pm 37.1 37.0 15.0 27 14.0 SSW 9 15 5 8 1007.0 1005.6 0.0
17/02:30pm 35.0 33.9 14.3 29 12.9 NNW 13 20 7 11 1007.2 1005.7 0.0
17/02:00pm 35.2 35.3 14.5 29 12.9 N 7 15 4 8 1007.5 1006.0 0.0
17/01:30pm 36.0 35.6 14.1 27 13.6 WNW 9 13 5 7 1007.9 1006.4 0.0

Other formats

Comma delimited format used in spreadsheet applications
http://www.bom.gov.au/fwo/IDN60801/IDN60801.95734.axf

JavaScript Object Notation format (JSON) in row-major order
http://www.bom.gov.au/fwo/IDN60801/IDN60801.95734.json

Data quality

Most of these data are generated automatically and are frequently updated. Quality checks on data are not normally performed. It is possible for incorrect values to appear. Refer to information at About Latest Weather Observations and please check the disclaimer before using these data.